sensor_id;sensor_type;location;lat;lon;timestamp;pressure;altitude;pressure_sealevel;temperature;humidity
39455;BME280;25155;41.890;23.446;2023-04-06T00:01:26;91358.72;;;-1.66;63.53
39455;BME280;25155;41.890;23.446;2023-04-06T00:03:54;91353.72;;;-1.61;63.55
39455;BME280;25155;41.890;23.446;2023-04-06T00:06:21;91355.16;;;-1.65;63.42
39455;BME280;25155;41.890;23.446;2023-04-06T00:08:48;91352.28;;;-1.57;63.83
39455;BME280;25155;41.890;23.446;2023-04-06T00:11:16;91351.41;;;-1.51;63.16
39455;BME280;25155;41.890;23.446;2023-04-06T00:13:45;91353.81;;;-1.56;63.02
39455;BME280;25155;41.890;23.446;2023-04-06T00:16:12;91356.66;;;-1.58;63.33
39455;BME280;25155;41.890;23.446;2023-04-06T00:18:39;91350.81;;;-1.53;63.45
39455;BME280;25155;41.890;23.446;2023-04-06T00:21:06;91346.25;;;-1.51;62.97
39455;BME280;25155;41.890;23.446;2023-04-06T00:23:34;91349.94;;;-1.47;62.71
39455;BME280;25155;41.890;23.446;2023-04-06T00:26:01;91342.78;;;-1.45;62.30
39455;BME280;25155;41.890;23.446;2023-04-06T00:28:28;91332.59;;;-1.52;62.35
39455;BME280;25155;41.890;23.446;2023-04-06T00:30:57;91335.19;;;-1.52;62.47
39455;BME280;25155;41.890;23.446;2023-04-06T00:33:24;91331.06;;;-1.41;62.34
39455;BME280;25155;41.890;23.446;2023-04-06T00:35:51;91326.03;;;-1.47;62.62
39455;BME280;25155;41.890;23.446;2023-04-06T00:38:18;91312.72;;;-1.56;62.24
39455;BME280;25155;41.890;23.446;2023-04-06T00:40:46;91328.28;;;-1.51;62.55
39455;BME280;25155;41.890;23.446;2023-04-06T00:43:13;91327.56;;;-1.58;62.36
39455;BME280;25155;41.890;23.446;2023-04-06T00:45:41;91319.97;;;-1.53;62.50
39455;BME280;25155;41.890;23.446;2023-04-06T00:48:10;91331.59;;;-1.62;62.53
39455;BME280;25155;41.890;23.446;2023-04-06T00:50:38;91325.81;;;-1.58;62.83
39455;BME280;25155;41.890;23.446;2023-04-06T00:53:06;91329.72;;;-1.55;62.55
39455;BME280;25155;41.890;23.446;2023-04-06T00:55:33;91323.00;;;-1.56;63.00
39455;BME280;25155;41.890;23.446;2023-04-06T00:58:02;91322.22;;;-1.57;62.82
39455;BME280;25155;41.890;23.446;2023-04-06T01:00:29;91332.28;;;-1.55;63.04
39455;BME280;25155;41.890;23.446;2023-04-06T01:02:57;91323.13;;;-1.51;62.94
39455;BME280;25155;41.890;23.446;2023-04-06T01:05:25;91325.38;;;-1.43;63.12
39455;BME280;25155;41.890;23.446;2023-04-06T01:07:52;91325.47;;;-1.38;62.98
39455;BME280;25155;41.890;23.446;2023-04-06T01:10:23;91326.59;;;-1.34;63.39
39455;BME280;25155;41.890;23.446;2023-04-06T01:12:51;91325.47;;;-1.26;63.50
39455;BME280;25155;41.890;23.446;2023-04-06T01:15:19;91328.72;;;-1.19;63.16
39455;BME280;25155;41.890;23.446;2023-04-06T01:17:47;91320.66;;;-1.10;62.72
39455;BME280;25155;41.890;23.446;2023-04-06T01:20:15;91316.19;;;-1.03;62.85
39455;BME280;25155;41.890;23.446;2023-04-06T01:22:43;91315.41;;;-1.04;62.95
39455;BME280;25155;41.890;23.446;2023-04-06T01:25:11;91313.50;;;-1.08;62.45
39455;BME280;25155;41.890;23.446;2023-04-06T01:27:38;91325.25;;;-1.12;62.56
39455;BME280;25155;41.890;23.446;2023-04-06T01:30:06;91308.03;;;-1.12;61.62
39455;BME280;25155;41.890;23.446;2023-04-06T01:32:33;91306.94;;;-1.16;61.57
39455;BME280;25155;41.890;23.446;2023-04-06T01:35:01;91307.16;;;-1.29;61.76
39455;BME280;25155;41.890;23.446;2023-04-06T01:37:28;91314.63;;;-1.40;61.86
39455;BME280;25155;41.890;23.446;2023-04-06T01:39:59;91317.66;;;-1.43;62.32
39455;BME280;25155;41.890;23.446;2023-04-06T01:42:26;91311.81;;;-1.50;62.62
39455;BME280;25155;41.890;23.446;2023-04-06T01:44:53;91303.91;;;-1.48;62.66
39455;BME280;25155;41.890;23.446;2023-04-06T01:47:21;91308.03;;;-1.47;62.55
39455;BME280;25155;41.890;23.446;2023-04-06T01:49:48;91303.69;;;-1.47;62.16
39455;BME280;25155;41.890;23.446;2023-04-06T01:52:15;91296.75;;;-1.46;61.97
39455;BME280;25155;41.890;23.446;2023-04-06T01:54:42;91297.66;;;-1.53;61.70
39455;BME280;25155;41.890;23.446;2023-04-06T01:57:11;91288.69;;;-1.74;62.12
39455;BME280;25155;41.890;23.446;2023-04-06T01:59:38;91287.13;;;-1.75;62.45
39455;BME280;25155;41.890;23.446;2023-04-06T02:02:05;91280.75;;;-1.84;62.51
39455;BME280;25155;41.890;23.446;2023-04-06T02:04:32;91278.00;;;-2.13;63.12
39455;BME280;25155;41.890;23.446;2023-04-06T02:07:00;91292.28;;;-2.17;63.45
39455;BME280;25155;41.890;23.446;2023-04-06T02:09:27;91287.16;;;-2.17;63.34
39455;BME280;25155;41.890;23.446;2023-04-06T02:11:54;91288.84;;;-2.11;63.43
39455;BME280;25155;41.890;23.446;2023-04-06T02:14:25;91279.56;;;-2.12;63.23
39455;BME280;25155;41.890;23.446;2023-04-06T02:16:52;91275.31;;;-2.18;63.21
39455;BME280;25155;41.890;23.446;2023-04-06T02:19:20;91275.00;;;-2.10;62.95
39455;BME280;25155;41.890;23.446;2023-04-06T02:21:48;91276.88;;;-2.17;63.67
39455;BME280;25155;41.890;23.446;2023-04-06T02:24:15;91269.53;;;-2.13;63.45
39455;BME280;25155;41.890;23.446;2023-04-06T02:26:42;91279.88;;;-2.20;63.47
39455;BME280;25155;41.890;23.446;2023-04-06T02:29:09;91280.09;;;-2.21;63.92
39455;BME280;25155;41.890;23.446;2023-04-06T02:31:38;91286.00;;;-2.21;63.58
39455;BME280;25155;41.890;23.446;2023-04-06T02:34:05;91275.31;;;-2.18;63.73
39455;BME280;25155;41.890;23.446;2023-04-06T02:36:32;91273.88;;;-2.14;63.81
39455;BME280;25155;41.890;23.446;2023-04-06T02:39:00;91281.22;;;-2.17;63.66
39455;BME280;25155;41.890;23.446;2023-04-06T02:41:27;91288.91;;;-2.17;63.45
39455;BME280;25155;41.890;23.446;2023-04-06T02:43:54;91278.00;;;-2.13;63.69
39455;BME280;25155;41.890;23.446;2023-04-06T02:46:21;91290.81;;;-2.24;63.38
39455;BME280;25155;41.890;23.446;2023-04-06T02:48:50;91287.78;;;-2.33;63.49
39455;BME280;25155;41.890;23.446;2023-04-06T02:51:17;91294.91;;;-2.35;63.64
39455;BME280;25155;41.890;23.446;2023-04-06T02:53:44;91285.56;;;-2.30;63.72
39455;BME280;25155;41.890;23.446;2023-04-06T02:56:12;91284.13;;;-2.25;63.79
39455;BME280;25155;41.890;23.446;2023-04-06T02:58:39;91283.75;;;-2.29;63.87
39455;BME280;25155;41.890;23.446;2023-04-06T03:01:06;91291.16;;;-2.21;64.01
39455;BME280;25155;41.890;23.446;2023-04-06T03:03:34;91293.63;;;-2.14;64.18
39455;BME280;25155;41.890;23.446;2023-04-06T03:06:03;91287.28;;;-2.12;63.80
39455;BME280;25155;41.890;23.446;2023-04-06T03:08:30;91284.19;;;-2.02;63.51
39455;BME280;25155;41.890;23.446;2023-04-06T03:10:58;91284.09;;;-1.95;63.54
39455;BME280;25155;41.890;23.446;2023-04-06T03:13:25;91280.75;;;-1.84;63.58
39455;BME280;25155;41.890;23.446;2023-04-06T03:15:52;91279.84;;;-1.78;63.71
39455;BME280;25155;41.890;23.446;2023-04-06T03:18:22;91278.41;;;-1.74;63.98
39455;BME280;25155;41.890;23.446;2023-04-06T03:20:50;91281.75;;;-1.61;63.51
39455;BME280;25155;41.890;23.446;2023-04-06T03:23:21;91276.06;;;-1.63;63.69
39455;BME280;25155;41.890;23.446;2023-04-06T03:25:48;91261.78;;;-1.59;63.31
39455;BME280;25155;41.890;23.446;2023-04-06T03:28:15;91265.25;;;-1.54;63.30
39455;BME280;25155;41.890;23.446;2023-04-06T03:30:42;91277.09;;;-1.53;63.50
39455;BME280;25155;41.890;23.446;2023-04-06T03:33:10;91274.63;;;-1.47;63.79
39455;BME280;25155;41.890;23.446;2023-04-06T03:35:37;91268.25;;;-1.45;63.42
39455;BME280;25155;41.890;23.446;2023-04-06T03:38:05;91274.06;;;-1.38;62.98
39455;BME280;25155;41.890;23.446;2023-04-06T03:40:33;91268.13;;;-1.38;63.31
39455;BME280;25155;41.890;23.446;2023-04-06T03:43:01;91270.59;;;-1.31;63.10
39455;BME280;25155;41.890;23.446;2023-04-06T03:45:28;91268.47;;;-1.35;63.19
39455;BME280;25155;41.890;23.446;2023-04-06T03:47:55;91264.78;;;-1.39;63.05
39455;BME280;25155;41.890;23.446;2023-04-06T03:50:22;91281.69;;;-1.43;63.48
39455;BME280;25155;41.890;23.446;2023-04-06T03:52:50;91271.94;;;-1.53;63.91
39455;BME280;25155;41.890;23.446;2023-04-06T03:55:17;91267.59;;;-1.52;63.71
39455;BME280;25155;41.890;23.446;2023-04-06T03:57:46;91272.19;;;-1.54;63.39
39455;BME280;25155;41.890;23.446;2023-04-06T04:00:14;91269.38;;;-1.53;63.34
39455;BME280;25155;41.890;23.446;2023-04-06T04:02:41;91273.16;;;-1.55;63.91
39455;BME280;25155;41.890;23.446;2023-04-06T04:05:09;91266.44;;;-1.56;63.74
39455;BME280;25155;41.890;23.446;2023-04-06T04:07:36;91274.75;;;-1.54;63.69
39455;BME280;25155;41.890;23.446;2023-04-06T04:10:04;91277.53;;;-1.56;63.72
39455;BME280;25155;41.890;23.446;2023-04-06T04:12:31;91289.72;;;-1.51;63.51
39455;BME280;25155;41.890;23.446;2023-04-06T04:15:01;91277.97;;;-1.59;63.44
39455;BME280;25155;41.890;23.446;2023-04-06T04:17:28;91283.00;;;-1.64;63.79
39455;BME280;25155;41.890;23.446;2023-04-06T04:19:56;91280.09;;;-1.67;63.80
39455;BME280;25155;41.890;23.446;2023-04-06T04:22:23;91280.75;;;-1.72;63.63
39455;BME280;25155;41.890;23.446;2023-04-06T04:24:50;91283.13;;;-1.71;63.77
39455;BME280;25155;41.890;23.446;2023-04-06T04:27:17;91281.09;;;-1.68;64.05
39455;BME280;25155;41.890;23.446;2023-04-06T04:29:44;91280.44;;;-1.64;63.61
39455;BME280;25155;41.890;23.446;2023-04-06T04:32:13;91287.47;;;-1.59;63.98
39455;BME280;25155;41.890;23.446;2023-04-06T04:34:41;91288.16;;;-1.52;63.76
39455;BME280;25155;41.890;23.446;2023-04-06T04:37:08;91288.16;;;-1.52;63.96
39455;BME280;25155;41.890;23.446;2023-04-06T04:39:35;91289.47;;;-1.49;64.15
39455;BME280;25155;41.890;23.446;2023-04-06T04:42:03;91290.81;;;-1.47;64.15
39455;BME280;25155;41.890;23.446;2023-04-06T04:44:30;91280.88;;;-1.43;64.26
39455;BME280;25155;41.890;23.446;2023-04-06T04:46:57;91281.19;;;-1.40;64.14
39455;BME280;25155;41.890;23.446;2023-04-06T04:49:26;91278.41;;;-1.38;64.46
39455;BME280;25155;41.890;23.446;2023-04-06T04:51:53;91283.88;;;-1.35;64.00
39455;BME280;25155;41.890;23.446;2023-04-06T04:54:21;91280.41;;;-1.28;64.27
39455;BME280;25155;41.890;23.446;2023-04-06T04:56:48;91279.53;;;-1.22;64.12
39455;BME280;25155;41.890;23.446;2023-04-06T04:59:15;91277.06;;;-1.17;64.25
39455;BME280;25155;41.890;23.446;2023-04-06T05:01:43;91273.81;;;-1.12;64.35
39455;BME280;25155;41.890;23.446;2023-04-06T05:04:10;91278.84;;;-1.06;64.40
39455;BME280;25155;41.890;23.446;2023-04-06T05:06:39;91273.03;;;-1.01;64.24
39455;BME280;25155;41.890;23.446;2023-04-06T05:09:06;91277.03;;;-0.93;63.85
39455;BME280;25155;41.890;23.446;2023-04-06T05:11:33;91282.25;;;-0.88;64.13
39455;BME280;25155;41.890;23.446;2023-04-06T05:14:01;91276.66;;;-0.85;63.89
39455;BME280;25155;41.890;23.446;2023-04-06T05:16:28;91281.38;;;-0.82;64.20
39455;BME280;25155;41.890;23.446;2023-04-06T05:18:55;91276.09;;;-0.75;64.31
39455;BME280;25155;41.890;23.446;2023-04-06T05:21:23;91276.50;;;-0.67;64.39
39455;BME280;25155;41.890;23.446;2023-04-06T05:23:53;91277.41;;;-0.61;64.63
39455;BME280;25155;41.890;23.446;2023-04-06T05:26:21;91272.66;;;-0.52;64.52
39455;BME280;25155;41.890;23.446;2023-04-06T05:28:48;91275.91;;;-0.45;64.43
39455;BME280;25155;41.890;23.446;2023-04-06T05:31:15;91268.91;;;-0.33;64.36
39455;BME280;25155;41.890;23.446;2023-04-06T05:33:43;91269.88;;;-0.22;64.28
39455;BME280;25155;41.890;23.446;2023-04-06T05:36:10;91258.94;;;-0.12;64.47
39455;BME280;25155;41.890;23.446;2023-04-06T05:38:37;91256.06;;;0.01;64.42
39455;BME280;25155;41.890;23.446;2023-04-06T05:41:06;91254.59;;;0.05;64.17
39455;BME280;25155;41.890;23.446;2023-04-06T05:43:33;91252.63;;;0.12;63.84
39455;BME280;25155;41.890;23.446;2023-04-06T05:46:00;91247.78;;;0.16;63.56
39455;BME280;25155;41.890;23.446;2023-04-06T05:48:27;91244.97;;;0.18;63.06
39455;BME280;25155;41.890;23.446;2023-04-06T05:50:54;91251.78;;;0.24;63.37
39455;BME280;25155;41.890;23.446;2023-04-06T05:53:21;91243.19;;;0.35;63.44
39455;BME280;25155;41.890;23.446;2023-04-06T05:55:51;91248.19;;;0.42;63.25
39455;BME280;25155;41.890;23.446;2023-04-06T05:58:20;91249.03;;;0.47;63.38
39455;BME280;25155;41.890;23.446;2023-04-06T06:00:47;91247.78;;;0.50;62.12
39455;BME280;25155;41.890;23.446;2023-04-06T06:03:15;91249.13;;;0.53;62.61
39455;BME280;25155;41.890;23.446;2023-04-06T06:05:43;91241.88;;;0.49;62.00
39455;BME280;25155;41.890;23.446;2023-04-06T06:08:10;91240.44;;;0.59;62.29
39455;BME280;25155;41.890;23.446;2023-04-06T06:10:38;91230.25;;;0.69;62.39
39455;BME280;25155;41.890;23.446;2023-04-06T06:13:06;91239.84;;;0.74;62.13
39455;BME280;25155;41.890;23.446;2023-04-06T06:15:34;91235.00;;;0.77;62.13
39455;BME280;25155;41.890;23.446;2023-04-06T06:18:01;91235.69;;;0.90;61.96
39455;BME280;25155;41.890;23.446;2023-04-06T06:20:29;91237.84;;;0.98;62.28
39455;BME280;25155;41.890;23.446;2023-04-06T06:22:56;91224.72;;;0.99;61.69
39455;BME280;25155;41.890;23.446;2023-04-06T06:25:23;91238.81;;;1.14;61.71
39455;BME280;25155;41.890;23.446;2023-04-06T06:27:50;91238.66;;;1.20;61.79
39455;BME280;25155;41.890;23.446;2023-04-06T06:30:18;91239.91;;;1.18;59.63
39455;BME280;25155;41.890;23.446;2023-04-06T06:32:46;91235.97;;;1.15;60.14
39455;BME280;25155;41.890;23.446;2023-04-06T06:35:14;91228.13;;;1.05;59.20
39455;BME280;25155;41.890;23.446;2023-04-06T06:37:41;91232.50;;;0.82;56.44
39455;BME280;25155;41.890;23.446;2023-04-06T06:40:09;91231.09;;;0.53;55.93
39455;BME280;25155;41.890;23.446;2023-04-06T06:42:38;91244.50;;;0.21;55.71
39455;BME280;25155;41.890;23.446;2023-04-06T06:45:07;91237.09;;;0.07;56.77
39455;BME280;25155;41.890;23.446;2023-04-06T06:47:34;91237.56;;;0.04;57.85
39455;BME280;25155;41.890;23.446;2023-04-06T06:50:04;91242.78;;;-0.08;56.78
39455;BME280;25155;41.890;23.446;2023-04-06T06:52:31;91239.75;;;-0.21;57.39
39455;BME280;25155;41.890;23.446;2023-04-06T06:54:58;91241.63;;;-0.17;57.36
39455;BME280;25155;41.890;23.446;2023-04-06T06:57:26;91231.31;;;-0.17;57.47
39455;BME280;25155;41.890;23.446;2023-04-06T06:59:53;91240.50;;;-0.21;57.80
39455;BME280;25155;41.890;23.446;2023-04-06T07:02:20;91247.94;;;-0.25;57.52
39455;BME280;25155;41.890;23.446;2023-04-06T07:04:47;91242.16;;;-0.32;58.14
39455;BME280;25155;41.890;23.446;2023-04-06T07:07:16;91241.78;;;-0.24;59.12
39455;BME280;25155;41.890;23.446;2023-04-06T07:09:43;91235.84;;;-0.07;58.89
39455;BME280;25155;41.890;23.446;2023-04-06T07:12:11;91241.31;;;0.13;58.60
39455;BME280;25155;41.890;23.446;2023-04-06T07:14:38;91233.41;;;0.37;59.74
39455;BME280;25155;41.890;23.446;2023-04-06T07:17:05;91231.16;;;0.58;58.44
39455;BME280;25155;41.890;23.446;2023-04-06T07:19:32;91239.56;;;0.70;57.30
39455;BME280;25155;41.890;23.446;2023-04-06T07:21:59;91237.56;;;0.77;57.54
39455;BME280;25155;41.890;23.446;2023-04-06T07:24:29;91233.88;;;0.90;57.65
39455;BME280;25155;41.890;23.446;2023-04-06T07:26:58;91231.53;;;0.88;55.59
39455;BME280;25155;41.890;23.446;2023-04-06T07:29:26;91234.13;;;0.88;56.47
39455;BME280;25155;41.890;23.446;2023-04-06T07:31:53;91224.41;;;0.96;57.34
39455;BME280;25155;41.890;23.446;2023-04-06T07:34:20;91231.66;;;0.99;56.20
39455;BME280;25155;41.890;23.446;2023-04-06T07:36:47;91230.47;;;1.06;56.51
39455;BME280;25155;41.890;23.446;2023-04-06T07:39:15;91223.38;;;0.97;55.99
39455;BME280;25155;41.890;23.446;2023-04-06T07:41:43;91225.59;;;1.10;56.42
39455;BME280;25155;41.890;23.446;2023-04-06T07:44:10;91218.00;;;1.20;57.91
39455;BME280;25155;41.890;23.446;2023-04-06T07:46:38;91217.25;;;1.25;55.77
39455;BME280;25155;41.890;23.446;2023-04-06T07:49:05;91214.19;;;1.28;54.40
39455;BME280;25155;41.890;23.446;2023-04-06T07:51:32;91219.47;;;1.38;56.05
39455;BME280;25155;41.890;23.446;2023-04-06T07:54:02;91212.91;;;1.53;56.00
39455;BME280;25155;41.890;23.446;2023-04-06T07:56:29;91217.59;;;1.56;55.25
39455;BME280;25155;41.890;23.446;2023-04-06T07:58:58;91211.50;;;1.67;54.88
39455;BME280;25155;41.890;23.446;2023-04-06T08:01:25;91214.31;;;1.66;54.68
39455;BME280;25155;41.890;23.446;2023-04-06T08:03:53;91216.66;;;1.67;54.08
39455;BME280;25155;41.890;23.446;2023-04-06T08:06:21;91211.31;;;1.74;55.75
39455;BME280;25155;41.890;23.446;2023-04-06T08:08:48;91202.06;;;1.83;55.19
39455;BME280;25155;41.890;23.446;2023-04-06T08:11:15;91206.47;;;1.83;53.91
39455;BME280;25155;41.890;23.446;2023-04-06T08:13:42;91205.16;;;1.80;54.59
39455;BME280;25155;41.890;23.446;2023-04-06T08:16:11;91208.00;;;1.78;54.30
39455;BME280;25155;41.890;23.446;2023-04-06T08:18:39;91201.94;;;1.95;53.34
39455;BME280;25155;41.890;23.446;2023-04-06T08:21:06;91210.38;;;2.17;53.31
39455;BME280;25155;41.890;23.446;2023-04-06T08:23:33;91205.25;;;2.28;53.49
39455;BME280;25155;41.890;23.446;2023-04-06T08:26:00;91199.34;;;2.32;52.90
39455;BME280;25155;41.890;23.446;2023-04-06T08:28:27;91195.28;;;2.42;52.88
39455;BME280;25155;41.890;23.446;2023-04-06T08:30:54;91203.06;;;2.47;52.78
39455;BME280;25155;41.890;23.446;2023-04-06T08:33:23;91201.59;;;2.56;52.14
39455;BME280;25155;41.890;23.446;2023-04-06T08:35:50;91194.84;;;2.55;52.02
39455;BME280;25155;41.890;23.446;2023-04-06T08:38:17;91199.03;;;2.61;53.22
39455;BME280;25155;41.890;23.446;2023-04-06T08:40:45;91198.25;;;2.66;52.19
39455;BME280;25155;41.890;23.446;2023-04-06T08:43:14;91192.38;;;2.76;52.06
39455;BME280;25155;41.890;23.446;2023-04-06T08:45:41;91193.72;;;2.88;52.73
39455;BME280;25155;41.890;23.446;2023-04-06T08:48:09;91186.50;;;2.90;51.50
39455;BME280;25155;41.890;23.446;2023-04-06T08:50:40;91186.00;;;2.94;51.45
39455;BME280;25155;41.890;23.446;2023-04-06T08:53:07;91186.88;;;3.15;51.99
39455;BME280;25155;41.890;23.446;2023-04-06T08:55:35;91187.19;;;3.34;50.99
39455;BME280;25155;41.890;23.446;2023-04-06T08:58:03;91178.69;;;3.49;51.26
39455;BME280;25155;41.890;23.446;2023-04-06T09:00:31;91188.53;;;3.46;49.59
39455;BME280;25155;41.890;23.446;2023-04-06T09:02:58;91174.03;;;3.45;51.11
39455;BME280;25155;41.890;23.446;2023-04-06T09:05:26;91170.41;;;3.57;50.85
39455;BME280;25155;41.890;23.446;2023-04-06T09:07:55;91173.56;;;3.64;51.13
39455;BME280;25155;41.890;23.446;2023-04-06T09:10:22;91166.31;;;3.76;50.26
39455;BME280;25155;41.890;23.446;2023-04-06T09:12:51;91147.66;;;3.74;50.22
39455;BME280;25155;41.890;23.446;2023-04-06T09:15:19;91160.09;;;3.77;48.85
39455;BME280;25155;41.890;23.446;2023-04-06T09:17:46;91160.34;;;3.81;50.69
39455;BME280;25155;41.890;23.446;2023-04-06T09:20:13;91159.31;;;3.92;49.52
39455;BME280;25155;41.890;23.446;2023-04-06T09:22:42;91150.75;;;3.87;47.13
39455;BME280;25155;41.890;23.446;2023-04-06T09:25:19;91154.91;;;3.93;50.52
39455;BME280;25155;41.890;23.446;2023-04-06T09:27:48;91133.91;;;4.10;47.85
39455;BME280;25155;41.890;23.446;2023-04-06T09:30:24;91147.13;;;4.08;47.94
39455;BME280;25155;41.890;23.446;2023-04-06T09:32:53;91150.50;;;4.04;47.49
39455;BME280;25155;41.890;23.446;2023-04-06T09:35:21;91141.19;;;3.87;47.56
39455;BME280;25155;41.890;23.446;2023-04-06T09:37:51;91144.03;;;3.80;49.75
39455;BME280;25155;41.890;23.446;2023-04-06T09:40:20;91144.28;;;3.89;47.67
39455;BME280;25155;41.890;23.446;2023-04-06T09:42:48;91139.88;;;3.95;48.94
39455;BME280;25155;41.890;23.446;2023-04-06T09:45:19;91136.00;;;3.87;48.58
39455;BME280;25155;41.890;23.446;2023-04-06T09:47:46;91142.47;;;3.95;49.33
39455;BME280;25155;41.890;23.446;2023-04-06T09:50:14;91137.81;;;4.02;48.78
39455;BME280;25155;41.890;23.446;2023-04-06T09:52:46;91126.13;;;4.10;46.75
39455;BME280;25155;41.890;23.446;2023-04-06T09:55:22;91139.88;;;4.10;47.06
39455;BME280;25155;41.890;23.446;2023-04-06T09:57:55;91134.94;;;4.14;47.35
39455;BME280;25155;41.890;23.446;2023-04-06T10:00:25;91127.41;;;4.17;46.81
39455;BME280;25155;41.890;23.446;2023-04-06T10:02:58;91132.34;;;4.24;47.42
39455;BME280;25155;41.890;23.446;2023-04-06T10:05:32;91135.69;;;4.25;48.49
39455;BME280;25155;41.890;23.446;2023-04-06T10:08:03;91137.75;;;4.33;46.73
39455;BME280;25155;41.890;23.446;2023-04-06T10:10:34;91126.09;;;4.35;45.88
39455;BME280;25155;41.890;23.446;2023-04-06T10:13:02;91119.88;;;4.42;45.46
39455;BME280;25155;41.890;23.446;2023-04-06T10:15:29;91134.13;;;4.44;46.31
39455;BME280;25155;41.890;23.446;2023-04-06T10:17:57;91131.50;;;4.49;47.21
39455;BME280;25155;41.890;23.446;2023-04-06T10:20:28;91132.81;;;4.57;46.04
39455;BME280;25155;41.890;23.446;2023-04-06T10:23:01;91125.75;;;4.63;46.77
39455;BME280;25155;41.890;23.446;2023-04-06T10:25:34;91119.22;;;4.81;48.05
39455;BME280;25155;41.890;23.446;2023-04-06T10:28:05;91131.41;;;4.90;45.51
39455;BME280;25155;41.890;23.446;2023-04-06T10:30:33;91135.06;;;4.89;44.73
39455;BME280;25155;41.890;23.446;2023-04-06T10:33:01;91132.91;;;5.02;45.34
39455;BME280;25155;41.890;23.446;2023-04-06T10:35:39;91131.34;;;5.01;46.06
39455;BME280;25155;41.890;23.446;2023-04-06T10:38:06;91135.97;;;5.19;45.80
39455;BME280;25155;41.890;23.446;2023-04-06T10:40:37;91108.38;;;5.28;44.74
39455;BME280;25155;41.890;23.446;2023-04-06T10:43:09;91123.25;;;5.18;45.08
39455;BME280;25155;41.890;23.446;2023-04-06T10:45:36;91127.22;;;5.00;44.63
39455;BME280;25155;41.890;23.446;2023-04-06T10:48:13;91121.94;;;5.15;43.62
39455;BME280;25155;41.890;23.446;2023-04-06T10:50:41;91117.50;;;5.26;43.39
39455;BME280;25155;41.890;23.446;2023-04-06T10:53:08;91117.22;;;5.22;45.31
39455;BME280;25155;41.890;23.446;2023-04-06T10:55:39;91123.94;;;5.34;46.04
39455;BME280;25155;41.890;23.446;2023-04-06T10:58:07;91116.91;;;5.44;44.94
39455;BME280;25155;41.890;23.446;2023-04-06T11:00:34;91104.16;;;5.38;45.19
39455;BME280;25155;41.890;23.446;2023-04-06T11:03:02;91114.81;;;5.41;46.53
39455;BME280;25155;41.890;23.446;2023-04-06T11:05:29;91121.91;;;5.25;43.70
39455;BME280;25155;41.890;23.446;2023-04-06T11:07:57;91122.97;;;5.19;44.18
39455;BME280;25155;41.890;23.446;2023-04-06T11:10:24;91134.81;;;5.36;43.37
39455;BME280;25155;41.890;23.446;2023-04-06T11:12:56;91123.91;;;5.44;44.68
39455;BME280;25155;41.890;23.446;2023-04-06T11:15:23;91123.59;;;5.50;44.73
39455;BME280;25155;41.890;23.446;2023-04-06T11:17:50;91126.19;;;5.50;43.43
39455;BME280;25155;41.890;23.446;2023-04-06T11:20:18;91115.06;;;5.45;44.04
39455;BME280;25155;41.890;23.446;2023-04-06T11:22:49;91117.91;;;5.48;43.96
39455;BME280;25155;41.890;23.446;2023-04-06T11:25:17;91124.69;;;5.44;42.55
39455;BME280;25155;41.890;23.446;2023-04-06T11:27:45;91118.75;;;5.28;42.63
39455;BME280;25155;41.890;23.446;2023-04-06T11:30:14;91132.09;;;5.11;43.61
39455;BME280;25155;41.890;23.446;2023-04-06T11:32:43;91125.56;;;5.24;44.28
39455;BME280;25155;41.890;23.446;2023-04-06T11:35:11;91118.69;;;5.44;44.30
39455;BME280;25155;41.890;23.446;2023-04-06T11:37:39;91119.41;;;5.60;43.87
39455;BME280;25155;41.890;23.446;2023-04-06T11:40:09;91133.41;;;5.64;43.24
39455;BME280;25155;41.890;23.446;2023-04-06T11:42:36;91128.56;;;5.47;42.69
39455;BME280;25155;41.890;23.446;2023-04-06T11:45:04;91127.03;;;5.46;41.91
39455;BME280;25155;41.890;23.446;2023-04-06T11:47:36;91129.16;;;5.28;43.16
39455;BME280;25155;41.890;23.446;2023-04-06T11:50:07;91122.69;;;5.26;43.95
39455;BME280;25155;41.890;23.446;2023-04-06T11:52:35;91115.88;;;5.35;43.26
39455;BME280;25155;41.890;23.446;2023-04-06T11:55:11;91132.53;;;5.34;42.68
39455;BME280;25155;41.890;23.446;2023-04-06T11:57:39;91136.34;;;5.47;42.48
39455;BME280;25155;41.890;23.446;2023-04-06T12:00:07;91117.16;;;5.43;42.12
39455;BME280;25155;41.890;23.446;2023-04-06T12:02:36;91139.81;;;5.27;43.09
39455;BME280;25155;41.890;23.446;2023-04-06T12:05:05;91125.75;;;5.33;42.34
39455;BME280;25155;41.890;23.446;2023-04-06T12:07:32;91121.38;;;5.23;42.77
39455;BME280;25155;41.890;23.446;2023-04-06T12:10:01;91119.25;;;5.30;42.36
39455;BME280;25155;41.890;23.446;2023-04-06T12:12:29;91120.00;;;5.41;42.42
39455;BME280;25155;41.890;23.446;2023-04-06T12:14:57;91126.75;;;5.47;43.28
39455;BME280;25155;41.890;23.446;2023-04-06T12:17:25;91117.09;;;5.53;41.75
39455;BME280;25155;41.890;23.446;2023-04-06T12:19:54;91129.84;;;5.49;39.90
39455;BME280;25155;41.890;23.446;2023-04-06T12:22:21;91119.22;;;5.36;40.27
39455;BME280;25155;41.890;23.446;2023-04-06T12:24:48;91119.53;;;5.34;40.88
39455;BME280;25155;41.890;23.446;2023-04-06T12:27:15;91139.28;;;5.30;40.83
39455;BME280;25155;41.890;23.446;2023-04-06T12:29:42;91135.09;;;5.39;41.00
39455;BME280;25155;41.890;23.446;2023-04-06T12:32:10;91124.47;;;5.30;40.67
39455;BME280;25155;41.890;23.446;2023-04-06T12:34:38;91146.28;;;5.35;41.33
39455;BME280;25155;41.890;23.446;2023-04-06T12:37:06;91136.63;;;5.45;41.19
39455;BME280;25155;41.890;23.446;2023-04-06T12:39:34;91140.44;;;5.58;41.11
39455;BME280;25155;41.890;23.446;2023-04-06T12:42:01;91138.28;;;5.76;41.30
39455;BME280;25155;41.890;23.446;2023-04-06T12:44:29;91138.31;;;5.71;41.06
39455;BME280;25155;41.890;23.446;2023-04-06T12:46:56;91128.38;;;5.78;40.19
39455;BME280;25155;41.890;23.446;2023-04-06T12:49:23;91127.91;;;5.71;40.45
39455;BME280;25155;41.890;23.446;2023-04-06T12:51:51;91126.63;;;5.68;40.03
39455;BME280;25155;41.890;23.446;2023-04-06T12:54:19;91123.78;;;5.64;40.75
39455;BME280;25155;41.890;23.446;2023-04-06T12:56:46;91138.88;;;5.62;40.29
39455;BME280;25155;41.890;23.446;2023-04-06T12:59:14;91126.78;;;5.82;39.99